sensor_id;sensor_type;location;lat;lon;timestamp;P1;durP1;ratioP1;P2;durP2;ratioP2
45734;SDS011;31446;49.632;8.328;2024-01-27T00:13:02;9.13;;;2.00;;
45734;SDS011;31446;49.632;8.328;2024-01-27T00:28:08;11.77;;;2.13;;
45734;SDS011;31446;49.632;8.328;2024-01-27T00:43:14;7.68;;;1.70;;
45734;SDS011;31446;49.632;8.328;2024-01-27T00:58:20;15.57;;;4.80;;
45734;SDS011;31446;49.632;8.328;2024-01-27T01:13:26;14.45;;;2.53;;
45734;SDS011;31446;49.632;8.328;2024-01-27T01:28:32;10.73;;;1.73;;
45734;SDS011;31446;49.632;8.328;2024-01-27T01:43:38;10.55;;;2.30;;
45734;SDS011;31446;49.632;8.328;2024-01-27T01:58:44;19.80;;;2.30;;
45734;SDS011;31446;49.632;8.328;2024-01-27T02:13:50;13.27;;;2.30;;
45734;SDS011;31446;49.632;8.328;2024-01-27T02:28:57;19.17;;;3.13;;
45734;SDS011;31446;49.632;8.328;2024-01-27T02:44:03;11.48;;;2.47;;
45734;SDS011;31446;49.632;8.328;2024-01-27T02:59:09;23.98;;;4.50;;
45734;SDS011;31446;49.632;8.328;2024-01-27T03:14:17;15.55;;;3.10;;
45734;SDS011;31446;49.632;8.328;2024-01-27T03:29:23;9.73;;;3.83;;
45734;SDS011;31446;49.632;8.328;2024-01-27T03:44:30;14.02;;;2.97;;
45734;SDS011;31446;49.632;8.328;2024-01-27T03:59:36;16.13;;;2.50;;
45734;SDS011;31446;49.632;8.328;2024-01-27T04:14:45;13.63;;;3.03;;
45734;SDS011;31446;49.632;8.328;2024-01-27T04:29:51;10.63;;;2.28;;
45734;SDS011;31446;49.632;8.328;2024-01-27T04:44:57;7.65;;;2.03;;
45734;SDS011;31446;49.632;8.328;2024-01-27T05:00:03;14.68;;;1.98;;
45734;SDS011;31446;49.632;8.328;2024-01-27T05:15:14;16.10;;;3.15;;
45734;SDS011;31446;49.632;8.328;2024-01-27T05:30:21;10.20;;;3.15;;
45734;SDS011;31446;49.632;8.328;2024-01-27T05:45:27;12.10;;;3.70;;
45734;SDS011;31446;49.632;8.328;2024-01-27T06:00:34;17.58;;;4.18;;
45734;SDS011;31446;49.632;8.328;2024-01-27T06:15:40;16.40;;;4.75;;
45734;SDS011;31446;49.632;8.328;2024-01-27T06:30:46;11.43;;;3.35;;
45734;SDS011;31446;49.632;8.328;2024-01-27T06:45:52;10.07;;;3.47;;
45734;SDS011;31446;49.632;8.328;2024-01-27T07:00:59;14.63;;;4.40;;
45734;SDS011;31446;49.632;8.328;2024-01-27T07:16:06;13.98;;;5.03;;
45734;SDS011;31446;49.632;8.328;2024-01-27T07:31:12;10.13;;;4.07;;
45734;SDS011;31446;49.632;8.328;2024-01-27T07:46:20;21.80;;;7.03;;
45734;SDS011;31446;49.632;8.328;2024-01-27T08:01:26;21.25;;;7.20;;
45734;SDS011;31446;49.632;8.328;2024-01-27T08:16:33;19.73;;;7.43;;
45734;SDS011;31446;49.632;8.328;2024-01-27T08:31:39;16.60;;;5.90;;
45734;SDS011;31446;49.632;8.328;2024-01-27T08:46:45;13.88;;;4.88;;
45734;SDS011;31446;49.632;8.328;2024-01-27T09:01:51;20.75;;;6.15;;
45734;SDS011;31446;49.632;8.328;2024-01-27T09:16:57;14.45;;;4.75;;
45734;SDS011;31446;49.632;8.328;2024-01-27T09:32:03;15.82;;;4.03;;
45734;SDS011;31446;49.632;8.328;2024-01-27T09:47:10;28.05;;;14.25;;
45734;SDS011;31446;49.632;8.328;2024-01-27T10:02:17;20.50;;;4.82;;
45734;SDS011;31446;49.632;8.328;2024-01-27T10:17:25;16.00;;;5.07;;
45734;SDS011;31446;49.632;8.328;2024-01-27T10:32:38;19.27;;;5.13;;
45734;SDS011;31446;49.632;8.328;2024-01-27T10:47:44;31.67;;;8.00;;
45734;SDS011;31446;49.632;8.328;2024-01-27T11:02:53;19.10;;;3.85;;
45734;SDS011;31446;49.632;8.328;2024-01-27T11:18:04;23.30;;;8.77;;
45734;SDS011;31446;49.632;8.328;2024-01-27T11:33:10;25.73;;;7.95;;
45734;SDS011;31446;49.632;8.328;2024-01-27T11:48:16;17.85;;;6.20;;
45734;SDS011;31446;49.632;8.328;2024-01-27T12:03:25;21.83;;;6.13;;
45734;SDS011;31446;49.632;8.328;2024-01-27T12:18:35;24.30;;;6.30;;
45734;SDS011;31446;49.632;8.328;2024-01-27T12:33:50;15.25;;;5.18;;
45734;SDS011;31446;49.632;8.328;2024-01-27T12:49:01;18.35;;;3.88;;
45734;SDS011;31446;49.632;8.328;2024-01-27T13:04:09;17.38;;;4.47;;
45734;SDS011;31446;49.632;8.328;2024-01-27T13:19:17;16.92;;;3.08;;
45734;SDS011;31446;49.632;8.328;2024-01-27T13:34:23;15.57;;;3.95;;
45734;SDS011;31446;49.632;8.328;2024-01-27T13:49:31;16.70;;;4.18;;
45734;SDS011;31446;49.632;8.328;2024-01-27T14:04:37;10.57;;;2.92;;
45734;SDS011;31446;49.632;8.328;2024-01-27T14:19:46;22.33;;;4.95;;
45734;SDS011;31446;49.632;8.328;2024-01-27T14:34:53;22.48;;;5.32;;
45734;SDS011;31446;49.632;8.328;2024-01-27T14:49:59;16.15;;;4.15;;
45734;SDS011;31446;49.632;8.328;2024-01-27T15:05:06;9.75;;;2.30;;
45734;SDS011;31446;49.632;8.328;2024-01-27T15:20:13;14.80;;;1.88;;
45734;SDS011;31446;49.632;8.328;2024-01-27T15:35:19;25.20;;;4.90;;
45734;SDS011;31446;49.632;8.328;2024-01-27T15:50:26;32.25;;;7.90;;
45734;SDS011;31446;49.632;8.328;2024-01-27T16:05:33;18.73;;;5.18;;
45734;SDS011;31446;49.632;8.328;2024-01-27T16:20:39;15.50;;;5.57;;
45734;SDS011;31446;49.632;8.328;2024-01-27T16:35:45;31.98;;;7.38;;
45734;SDS011;31446;49.632;8.328;2024-01-27T16:50:52;21.85;;;7.03;;
45734;SDS011;31446;49.632;8.328;2024-01-27T17:05:58;27.67;;;8.68;;
45734;SDS011;31446;49.632;8.328;2024-01-27T17:21:05;32.17;;;10.43;;
45734;SDS011;31446;49.632;8.328;2024-01-27T17:36:11;37.55;;;13.88;;
45734;SDS011;31446;49.632;8.328;2024-01-27T17:51:17;40.75;;;14.35;;
45734;SDS011;31446;49.632;8.328;2024-01-27T18:06:23;46.17;;;17.00;;
45734;SDS011;31446;49.632;8.328;2024-01-27T18:21:31;51.22;;;16.00;;
45734;SDS011;31446;49.632;8.328;2024-01-27T18:36:37;36.10;;;15.35;;
45734;SDS011;31446;49.632;8.328;2024-01-27T18:51:43;45.47;;;17.15;;
45734;SDS011;31446;49.632;8.328;2024-01-27T19:06:51;35.10;;;15.13;;
45734;SDS011;31446;49.632;8.328;2024-01-27T19:21:58;58.35;;;17.23;;
45734;SDS011;31446;49.632;8.328;2024-01-27T19:37:04;43.55;;;17.58;;
45734;SDS011;31446;49.632;8.328;2024-01-27T19:52:10;35.30;;;13.85;;
45734;SDS011;31446;49.632;8.328;2024-01-27T20:07:16;34.50;;;13.88;;
45734;SDS011;31446;49.632;8.328;2024-01-27T20:22:22;34.72;;;12.75;;
45734;SDS011;31446;49.632;8.328;2024-01-27T20:37:29;31.02;;;12.23;;
45734;SDS011;31446;49.632;8.328;2024-01-27T20:52:35;28.60;;;10.25;;
45734;SDS011;31446;49.632;8.328;2024-01-27T21:07:41;32.35;;;11.63;;
45734;SDS011;31446;49.632;8.328;2024-01-27T21:22:47;38.80;;;13.43;;
45734;SDS011;31446;49.632;8.328;2024-01-27T21:37:53;33.25;;;10.80;;
45734;SDS011;31446;49.632;8.328;2024-01-27T21:53:01;36.22;;;11.40;;
45734;SDS011;31446;49.632;8.328;2024-01-27T22:08:08;27.55;;;9.65;;
45734;SDS011;31446;49.632;8.328;2024-01-27T22:23:15;27.13;;;6.82;;
45734;SDS011;31446;49.632;8.328;2024-01-27T22:38:21;27.23;;;7.43;;
45734;SDS011;31446;49.632;8.328;2024-01-27T22:53:27;27.50;;;7.38;;
45734;SDS011;31446;49.632;8.328;2024-01-27T23:08:33;26.80;;;7.53;;
45734;SDS011;31446;49.632;8.328;2024-01-27T23:23:39;27.85;;;6.78;;
45734;SDS011;31446;49.632;8.328;2024-01-27T23:38:45;32.10;;;7.03;;
45734;SDS011;31446;49.632;8.328;2024-01-27T23:53:51;21.35;;;6.18;;
